sensor_id;sensor_type;location;lat;lon;timestamp;pressure;altitude;pressure_sealevel;temperature;humidity
24620;BME280;12763;55.802;37.404;2023-10-13T00:01:54;98101.50;;;11.37;nan
24620;BME280;12763;55.802;37.404;2023-10-13T00:04:21;98116.81;;;11.49;nan
24620;BME280;12763;55.802;37.404;2023-10-13T00:06:54;98105.53;;;11.51;nan
24620;BME280;12763;55.802;37.404;2023-10-13T00:09:24;98111.81;;;11.46;nan
24620;BME280;12763;55.802;37.404;2023-10-13T00:11:54;98117.88;;;11.43;nan
24620;BME280;12763;55.802;37.404;2023-10-13T00:14:21;98125.78;;;11.35;nan
24620;BME280;12763;55.802;37.404;2023-10-13T00:16:48;98122.66;;;11.53;nan
24620;BME280;12763;55.802;37.404;2023-10-13T00:19:34;98115.69;;;11.45;nan
24620;BME280;12763;55.802;37.404;2023-10-13T00:22:06;98118.38;;;11.40;nan
24620;BME280;12763;55.802;37.404;2023-10-13T00:24:36;98121.38;;;11.60;nan
24620;BME280;12763;55.802;37.404;2023-10-13T00:27:19;98120.41;;;11.50;nan
24620;BME280;12763;55.802;37.404;2023-10-13T00:29:59;98133.22;;;11.56;nan
24620;BME280;12763;55.802;37.404;2023-10-13T00:32:44;98121.50;;;11.49;nan
24620;BME280;12763;55.802;37.404;2023-10-13T00:35:12;98132.53;;;11.49;nan
24620;BME280;12763;55.802;37.404;2023-10-13T00:37:50;98124.44;;;11.64;nan
24620;BME280;12763;55.802;37.404;2023-10-13T00:40:21;98135.00;;;11.45;nan
24620;BME280;12763;55.802;37.404;2023-10-13T00:42:56;98123.91;;;11.40;nan
24620;BME280;12763;55.802;37.404;2023-10-13T00:45:46;98129.34;;;11.57;nan
24620;BME280;12763;55.802;37.404;2023-10-13T00:48:31;98124.53;;;11.47;nan
24620;BME280;12763;55.802;37.404;2023-10-13T00:51:02;98130.13;;;11.74;nan
24620;BME280;12763;55.802;37.404;2023-10-13T00:53:30;98136.81;;;11.56;nan
24620;BME280;12763;55.802;37.404;2023-10-13T00:56:01;98133.81;;;11.63;nan
24620;BME280;12763;55.802;37.404;2023-10-13T00:58:36;98138.34;;;11.69;nan
24620;BME280;12763;55.802;37.404;2023-10-13T01:01:05;98139.88;;;11.60;nan
24620;BME280;12763;55.802;37.404;2023-10-13T01:03:46;98136.81;;;11.56;nan
24620;BME280;12763;55.802;37.404;2023-10-13T01:06:18;98135.59;;;11.47;nan
24620;BME280;12763;55.802;37.404;2023-10-13T01:08:47;98156.00;;;11.46;nan
24620;BME280;12763;55.802;37.404;2023-10-13T01:11:19;98145.50;;;11.43;nan
24620;BME280;12763;55.802;37.404;2023-10-13T01:13:49;98156.53;;;11.43;nan
24620;BME280;12763;55.802;37.404;2023-10-13T01:16:20;98159.19;;;11.60;nan
24620;BME280;12763;55.802;37.404;2023-10-13T01:18:53;98147.72;;;11.68;nan
24620;BME280;12763;55.802;37.404;2023-10-13T01:21:18;98163.72;;;11.44;nan
24620;BME280;12763;55.802;37.404;2023-10-13T01:23:52;98162.69;;;11.50;nan
24620;BME280;12763;55.802;37.404;2023-10-13T01:26:18;98156.00;;;11.46;nan
24620;BME280;12763;55.802;37.404;2023-10-13T01:28:51;98147.59;;;11.58;nan
24620;BME280;12763;55.802;37.404;2023-10-13T01:31:17;98155.50;;;11.49;nan
24620;BME280;12763;55.802;37.404;2023-10-13T01:33:57;98146.28;;;11.65;nan
24620;BME280;12763;55.802;37.404;2023-10-13T01:36:29;98168.16;;;11.45;nan
24620;BME280;12763;55.802;37.404;2023-10-13T01:39:01;98149.72;;;11.51;nan
24620;BME280;12763;55.802;37.404;2023-10-13T01:41:27;98154.50;;;11.60;nan
24620;BME280;12763;55.802;37.404;2023-10-13T01:43:56;98173.75;;;11.50;nan
24620;BME280;12763;55.802;37.404;2023-10-13T01:46:23;98161.44;;;11.63;nan
24620;BME280;12763;55.802;37.404;2023-10-13T01:48:49;98185.19;;;11.37;nan
24620;BME280;12763;55.802;37.404;2023-10-13T01:51:15;98167.03;;;11.46;nan
24620;BME280;12763;55.802;37.404;2023-10-13T01:53:41;98156.16;;;11.56;nan
24620;BME280;12763;55.802;37.404;2023-10-13T01:56:08;98171.59;;;11.57;nan
24620;BME280;12763;55.802;37.404;2023-10-13T01:58:38;98170.72;;;11.52;nan
24620;BME280;12763;55.802;37.404;2023-10-13T02:01:08;98180.78;;;11.41;nan
24620;BME280;12763;55.802;37.404;2023-10-13T02:03:34;98175.41;;;11.51;nan
24620;BME280;12763;55.802;37.404;2023-10-13T02:06:02;98156.78;;;11.20;nan
24620;BME280;12763;55.802;37.404;2023-10-13T02:08:30;98157.56;;;11.37;nan
24620;BME280;12763;55.802;37.404;2023-10-13T02:10:57;98158.06;;;11.34;nan
24620;BME280;12763;55.802;37.404;2023-10-13T02:13:25;98164.34;;;11.30;nan
24620;BME280;12763;55.802;37.404;2023-10-13T02:15:57;98173.97;;;11.27;nan
24620;BME280;12763;55.802;37.404;2023-10-13T02:18:25;98163.16;;;11.20;nan
24620;BME280;12763;55.802;37.404;2023-10-13T02:21:03;98178.19;;;11.13;nan
24620;BME280;12763;55.802;37.404;2023-10-13T02:23:41;98167.50;;;11.16;nan
24620;BME280;12763;55.802;37.404;2023-10-13T02:26:12;98173.38;;;11.03;nan
24620;BME280;12763;55.802;37.404;2023-10-13T02:28:41;98189.69;;;11.05;nan
24620;BME280;12763;55.802;37.404;2023-10-13T02:31:07;98191.50;;;11.16;nan
24620;BME280;12763;55.802;37.404;2023-10-13T02:33:33;98186.25;;;11.14;nan
24620;BME280;12763;55.802;37.404;2023-10-13T02:36:01;98186.41;;;11.08;nan
24620;BME280;12763;55.802;37.404;2023-10-13T02:38:34;98200.03;;;11.14;nan
24620;BME280;12763;55.802;37.404;2023-10-13T02:41:02;98207.84;;;11.01;nan
24620;BME280;12763;55.802;37.404;2023-10-13T02:43:35;98203.16;;;11.18;nan
24620;BME280;12763;55.802;37.404;2023-10-13T02:46:02;98206.16;;;11.38;nan
24620;BME280;12763;55.802;37.404;2023-10-13T02:48:29;98207.06;;;11.44;nan
24620;BME280;12763;55.802;37.404;2023-10-13T02:51:12;98215.66;;;11.26;nan
24620;BME280;12763;55.802;37.404;2023-10-13T02:53:43;98212.81;;;11.37;nan
24620;BME280;12763;55.802;37.404;2023-10-13T02:56:12;98219.78;;;11.23;nan
24620;BME280;12763;55.802;37.404;2023-10-13T02:58:41;98211.88;;;11.10;nan
24620;BME280;12763;55.802;37.404;2023-10-13T03:01:11;98218.66;;;11.24;nan
24620;BME280;12763;55.802;37.404;2023-10-13T03:03:44;98210.31;;;11.19;nan
24620;BME280;12763;55.802;37.404;2023-10-13T03:06:14;98240.47;;;11.04;nan
24620;BME280;12763;55.802;37.404;2023-10-13T03:08:40;98236.28;;;11.18;nan
24620;BME280;12763;55.802;37.404;2023-10-13T03:11:06;98215.34;;;11.22;nan
24620;BME280;12763;55.802;37.404;2023-10-13T03:13:31;98222.81;;;11.05;nan
24620;BME280;12763;55.802;37.404;2023-10-13T03:16:00;98237.94;;;11.19;nan
24620;BME280;12763;55.802;37.404;2023-10-13T03:18:26;98220.38;;;11.08;nan
24620;BME280;12763;55.802;37.404;2023-10-13T03:20:51;98224.13;;;11.19;nan
24620;BME280;12763;55.802;37.404;2023-10-13T03:23:23;98230.59;;;11.08;nan
24620;BME280;12763;55.802;37.404;2023-10-13T03:25:51;98236.72;;;11.10;nan
24620;BME280;12763;55.802;37.404;2023-10-13T03:28:21;98236.38;;;11.06;nan
24620;BME280;12763;55.802;37.404;2023-10-13T03:30:51;98239.88;;;11.02;nan
24620;BME280;12763;55.802;37.404;2023-10-13T03:33:18;98227.53;;;10.88;nan
24620;BME280;12763;55.802;37.404;2023-10-13T03:35:54;98242.06;;;10.83;nan
24620;BME280;12763;55.802;37.404;2023-10-13T03:38:24;98267.16;;;10.65;nan
24620;BME280;12763;55.802;37.404;2023-10-13T03:40:53;98248.19;;;10.69;nan
24620;BME280;12763;55.802;37.404;2023-10-13T03:43:22;98259.31;;;10.74;nan
24620;BME280;12763;55.802;37.404;2023-10-13T03:45:50;98251.44;;;10.99;nan
24620;BME280;12763;55.802;37.404;2023-10-13T03:48:34;98266.47;;;10.75;nan
24620;BME280;12763;55.802;37.404;2023-10-13T03:51:17;98276.28;;;10.99;nan
24620;BME280;12763;55.802;37.404;2023-10-13T03:53:43;98280.47;;;10.85;nan
24620;BME280;12763;55.802;37.404;2023-10-13T03:56:27;98292.31;;;11.02;nan
24620;BME280;12763;55.802;37.404;2023-10-13T03:58:55;98286.28;;;11.05;nan
24620;BME280;12763;55.802;37.404;2023-10-13T04:01:29;98279.75;;;11.11;nan
24620;BME280;12763;55.802;37.404;2023-10-13T04:04:16;98298.16;;;10.89;nan
24620;BME280;12763;55.802;37.404;2023-10-13T04:07:02;98289.81;;;10.84;nan
24620;BME280;12763;55.802;37.404;2023-10-13T04:09:38;98294.69;;;11.10;nan
24620;BME280;12763;55.802;37.404;2023-10-13T04:12:13;98314.81;;;10.94;nan
24620;BME280;12763;55.802;37.404;2023-10-13T04:14:58;98317.06;;;10.97;nan
24620;BME280;12763;55.802;37.404;2023-10-13T04:17:33;98303.34;;;11.02;nan
24620;BME280;12763;55.802;37.404;2023-10-13T04:20:12;98326.88;;;11.04;nan
24620;BME280;12763;55.802;37.404;2023-10-13T04:28:05;98340.84;;;11.14;nan
24620;BME280;12763;55.802;37.404;2023-10-13T04:30:51;98364.94;;;11.19;nan
24620;BME280;12763;55.802;37.404;2023-10-13T04:33:26;98336.81;;;11.22;nan
24620;BME280;12763;55.802;37.404;2023-10-13T04:36:16;98362.94;;;11.14;nan
24620;BME280;12763;55.802;37.404;2023-10-13T04:38:51;98360.09;;;11.26;nan
24620;BME280;12763;55.802;37.404;2023-10-13T04:41:40;98359.91;;;11.16;nan
24620;BME280;12763;55.802;37.404;2023-10-13T04:44:24;98368.38;;;11.09;nan
24620;BME280;12763;55.802;37.404;2023-10-13T04:46:58;98365.94;;;11.30;nan
24620;BME280;12763;55.802;37.404;2023-10-13T04:49:31;98385.09;;;11.19;nan
24620;BME280;12763;55.802;37.404;2023-10-13T04:52:04;98386.53;;;11.39;nan
24620;BME280;12763;55.802;37.404;2023-10-13T04:54:37;98406.28;;;11.31;nan
24620;BME280;12763;55.802;37.404;2023-10-13T04:57:21;98393.66;;;11.51;nan
24620;BME280;12763;55.802;37.404;2023-10-13T05:00:04;98411.13;;;11.57;nan
24620;BME280;12763;55.802;37.404;2023-10-13T05:02:43;98410.66;;;11.43;nan
24620;BME280;12763;55.802;37.404;2023-10-13T05:05:44;98399.19;;;11.51;nan
24620;BME280;12763;55.802;37.404;2023-10-13T05:08:39;98423.00;;;11.41;nan
24620;BME280;12763;55.802;37.404;2023-10-13T05:11:26;98402.09;;;11.61;nan
24620;BME280;12763;55.802;37.404;2023-10-13T05:14:10;98416.75;;;11.45;nan
24620;BME280;12763;55.802;37.404;2023-10-13T05:16:54;98422.34;;;11.67;nan
24620;BME280;12763;55.802;37.404;2023-10-13T05:19:39;98415.97;;;11.66;nan
24620;BME280;12763;55.802;37.404;2023-10-13T05:22:23;98412.81;;;11.74;nan
24620;BME280;12763;55.802;37.404;2023-10-13T05:25:07;98432.56;;;11.66;nan
24620;BME280;12763;55.802;37.404;2023-10-13T05:27:52;98437.09;;;11.89;nan
24620;BME280;12763;55.802;37.404;2023-10-13T05:30:36;98443.44;;;11.56;nan
24620;BME280;12763;55.802;37.404;2023-10-13T05:33:20;98444.31;;;11.73;nan
24620;BME280;12763;55.802;37.404;2023-10-13T05:36:10;98465.56;;;11.90;nan
24620;BME280;12763;55.802;37.404;2023-10-13T05:38:54;98457.53;;;11.88;nan
24620;BME280;12763;55.802;37.404;2023-10-13T05:41:38;98447.31;;;11.89;nan
24620;BME280;12763;55.802;37.404;2023-10-13T05:44:23;98465.56;;;11.90;nan
24620;BME280;12763;55.802;37.404;2023-10-13T05:47:20;98485.06;;;11.66;nan
24620;BME280;12763;55.802;37.404;2023-10-13T05:50:10;98479.97;;;11.92;nan
24620;BME280;12763;55.802;37.404;2023-10-13T05:52:54;98489.59;;;12.06;nan
24620;BME280;12763;55.802;37.404;2023-10-13T05:55:28;98484.88;;;12.23;nan
24620;BME280;12763;55.802;37.404;2023-10-13T05:58:13;98485.44;;;11.87;nan
24620;BME280;12763;55.802;37.404;2023-10-13T06:00:57;98496.22;;;12.05;nan
24620;BME280;12763;55.802;37.404;2023-10-13T06:03:42;98510.13;;;11.76;nan
24620;BME280;12763;55.802;37.404;2023-10-13T06:06:27;98518.09;;;11.90;nan
24620;BME280;12763;55.802;37.404;2023-10-13T06:09:11;98505.84;;;12.02;nan
24620;BME280;12763;55.802;37.404;2023-10-13T06:11:56;98523.00;;;11.88;nan
24620;BME280;12763;55.802;37.404;2023-10-13T06:14:40;98501.94;;;11.82;nan
24620;BME280;12763;55.802;37.404;2023-10-13T06:17:25;98536.50;;;12.17;nan
24620;BME280;12763;55.802;37.404;2023-10-13T06:20:09;98519.59;;;12.14;nan
24620;BME280;12763;55.802;37.404;2023-10-13T06:22:54;98543.47;;;11.87;nan
24620;BME280;12763;55.802;37.404;2023-10-13T06:25:38;98534.56;;;12.18;nan
24620;BME280;12763;55.802;37.404;2023-10-13T06:28:22;98545.94;;;12.38;nan
24620;BME280;12763;55.802;37.404;2023-10-13T06:31:08;98552.50;;;11.82;nan
24620;BME280;12763;55.802;37.404;2023-10-13T06:33:37;98527.88;;;11.97;nan
24620;BME280;12763;55.802;37.404;2023-10-13T06:36:07;98554.53;;;11.87;nan
24620;BME280;12763;55.802;37.404;2023-10-13T06:38:37;98538.25;;;12.23;nan
24620;BME280;12763;55.802;37.404;2023-10-13T06:41:07;98555.03;;;12.00;nan
24620;BME280;12763;55.802;37.404;2023-10-13T06:43:37;98560.28;;;12.35;nan
24620;BME280;12763;55.802;37.404;2023-10-13T06:46:06;98565.41;;;12.10;nan
24620;BME280;12763;55.802;37.404;2023-10-13T06:48:34;98560.47;;;12.12;nan
24620;BME280;12763;55.802;37.404;2023-10-13T06:51:01;98588.22;;;12.17;nan
24620;BME280;12763;55.802;37.404;2023-10-13T06:53:40;98569.28;;;12.25;nan
24620;BME280;12763;55.802;37.404;2023-10-13T06:56:11;98583.94;;;12.26;nan
24620;BME280;12763;55.802;37.404;2023-10-13T06:58:44;98560.09;;;12.58;nan
24620;BME280;12763;55.802;37.404;2023-10-13T07:01:10;98596.41;;;12.62;nan
24620;BME280;12763;55.802;37.404;2023-10-13T07:03:43;98558.72;;;11.89;nan
24620;BME280;12763;55.802;37.404;2023-10-13T07:06:09;98579.84;;;11.95;nan
24620;BME280;12763;55.802;37.404;2023-10-13T07:08:46;98615.50;;;11.80;nan
24620;BME280;12763;55.802;37.404;2023-10-13T07:11:27;98644.38;;;11.72;nan
24620;BME280;12763;55.802;37.404;2023-10-13T07:14:03;98609.59;;;11.76;nan
24620;BME280;12763;55.802;37.404;2023-10-13T07:16:44;98622.75;;;12.14;nan
24620;BME280;12763;55.802;37.404;2023-10-13T07:19:24;98628.25;;;11.98;nan
24620;BME280;12763;55.802;37.404;2023-10-13T07:22:02;98623.25;;;12.11;nan
24620;BME280;12763;55.802;37.404;2023-10-13T07:24:49;98610.25;;;11.95;nan
24620;BME280;12763;55.802;37.404;2023-10-13T07:27:22;98627.78;;;12.17;nan
24620;BME280;12763;55.802;37.404;2023-10-13T07:29:56;98616.34;;;11.97;nan
24620;BME280;12763;55.802;37.404;2023-10-13T07:32:32;98636.97;;;12.06;nan
24620;BME280;12763;55.802;37.404;2023-10-13T07:34:59;98636.72;;;12.08;nan
24620;BME280;12763;55.802;37.404;2023-10-13T07:37:37;98640.81;;;12.05;nan
24620;BME280;12763;55.802;37.404;2023-10-13T07:40:08;98637.78;;;12.07;nan
24620;BME280;12763;55.802;37.404;2023-10-13T07:42:48;98641.69;;;12.39;nan
24620;BME280;12763;55.802;37.404;2023-10-13T07:45:14;98661.78;;;12.51;nan
24620;BME280;12763;55.802;37.404;2023-10-13T07:47:43;98656.94;;;12.58;nan
24620;BME280;12763;55.802;37.404;2023-10-13T07:50:10;98698.28;;;12.48;nan
24620;BME280;12763;55.802;37.404;2023-10-13T07:52:36;98666.41;;;12.62;nan
24620;BME280;12763;55.802;37.404;2023-10-13T07:55:03;98663.81;;;12.72;nan
24620;BME280;12763;55.802;37.404;2023-10-13T07:57:42;98669.50;;;12.32;nan
24620;BME280;12763;55.802;37.404;2023-10-13T08:00:21;98686.44;;;12.19;nan
24620;BME280;12763;55.802;37.404;2023-10-13T08:03:06;98693.31;;;12.17;nan
24620;BME280;12763;55.802;37.404;2023-10-13T08:05:44;98692.84;;;12.53;nan
24620;BME280;12763;55.802;37.404;2023-10-13T08:08:29;98704.31;;;12.78;nan
24620;BME280;12763;55.802;37.404;2023-10-13T08:11:08;98695.16;;;12.94;nan
24620;BME280;12763;55.802;37.404;2023-10-13T08:13:38;98709.56;;;12.96;nan
24620;BME280;12763;55.802;37.404;2023-10-13T08:16:06;98692.81;;;12.86;nan
24620;BME280;12763;55.802;37.404;2023-10-13T08:18:35;98721.88;;;13.61;nan
24620;BME280;12763;55.802;37.404;2023-10-13T08:21:02;98725.19;;;13.19;nan
24620;BME280;12763;55.802;37.404;2023-10-13T08:23:30;98733.91;;;13.28;nan
24620;BME280;12763;55.802;37.404;2023-10-13T08:26:15;98723.63;;;13.67;nan
24620;BME280;12763;55.802;37.404;2023-10-13T08:29:01;98735.09;;;13.75;nan
24620;BME280;12763;55.802;37.404;2023-10-13T08:31:50;98730.47;;;13.42;nan
24620;BME280;12763;55.802;37.404;2023-10-13T08:34:47;98743.06;;;13.50;nan
24620;BME280;12763;55.802;37.404;2023-10-13T08:37:13;98771.00;;;13.27;nan
24620;BME280;12763;55.802;37.404;2023-10-13T08:39:59;98744.47;;;13.31;nan
24620;BME280;12763;55.802;37.404;2023-10-13T08:42:38;98761.41;;;12.84;nan
24620;BME280;12763;55.802;37.404;2023-10-13T08:45:17;98762.97;;;13.09;nan
24620;BME280;12763;55.802;37.404;2023-10-13T08:47:50;98776.81;;;13.25;nan
24620;BME280;12763;55.802;37.404;2023-10-13T08:50:36;98761.00;;;13.26;nan
24620;BME280;12763;55.802;37.404;2023-10-13T08:56:11;98796.00;;;12.98;nan
24620;BME280;12763;55.802;37.404;2023-10-13T08:58:48;98792.16;;;12.83;nan
24620;BME280;12763;55.802;37.404;2023-10-13T09:01:29;98785.53;;;12.84;nan
24620;BME280;12763;55.802;37.404;2023-10-13T09:04:06;98813.94;;;12.96;nan
24620;BME280;12763;55.802;37.404;2023-10-13T09:06:45;98789.31;;;13.28;nan
24620;BME280;12763;55.802;37.404;2023-10-13T09:09:50;98822.97;;;13.20;nan
24620;BME280;12763;55.802;37.404;2023-10-13T09:12:22;98806.16;;;12.93;nan
24620;BME280;12763;55.802;37.404;2023-10-13T09:15:06;98782.34;;;13.64;nan
24620;BME280;12763;55.802;37.404;2023-10-13T09:17:52;98791.13;;;13.77;nan
24620;BME280;12763;55.802;37.404;2023-10-13T09:20:38;98801.81;;;13.69;nan
24620;BME280;12763;55.802;37.404;2023-10-13T09:23:13;98809.28;;;13.68;nan
24620;BME280;12763;55.802;37.404;2023-10-13T09:25:50;98788.16;;;14.05;nan
24620;BME280;12763;55.802;37.404;2023-10-13T09:28:20;98804.44;;;14.24;nan
24620;BME280;12763;55.802;37.404;2023-10-13T09:30:51;98840.19;;;14.42;nan
24620;BME280;12763;55.802;37.404;2023-10-13T09:33:24;98830.00;;;14.47;nan
24620;BME280;12763;55.802;37.404;2023-10-13T09:36:04;98837.69;;;14.40;nan
24620;BME280;12763;55.802;37.404;2023-10-13T09:38:33;98840.72;;;14.39;nan
24620;BME280;12763;55.802;37.404;2023-10-13T09:40:59;98839.91;;;14.65;nan
24620;BME280;12763;55.802;37.404;2023-10-13T09:43:35;98841.47;;;14.56;nan
24620;BME280;12763;55.802;37.404;2023-10-13T09:46:05;98831.53;;;14.60;nan
24620;BME280;12763;55.802;37.404;2023-10-13T09:51:03;98883.91;;;13.70;nan
24620;BME280;12763;55.802;37.404;2023-10-13T09:53:32;98875.63;;;13.36;nan
24620;BME280;12763;55.802;37.404;2023-10-13T09:58:41;98869.03;;;13.59;nan
24620;BME280;12763;55.802;37.404;2023-10-13T10:01:22;98868.78;;;13.99;nan
24620;BME280;12763;55.802;37.404;2023-10-13T10:04:10;98882.63;;;13.77;nan
24620;BME280;12763;55.802;37.404;2023-10-13T10:06:54;98880.06;;;14.14;nan
24620;BME280;12763;55.802;37.404;2023-10-13T10:09:27;98885.69;;;13.81;nan
24620;BME280;12763;55.802;37.404;2023-10-13T10:12:16;98901.38;;;13.53;nan
24620;BME280;12763;55.802;37.404;2023-10-13T10:17:23;98878.69;;;14.55;nan
24620;BME280;12763;55.802;37.404;2023-10-13T10:19:56;98896.28;;;14.22;nan
24620;BME280;12763;55.802;37.404;2023-10-13T10:22:31;98896.72;;;13.76;nan
24620;BME280;12763;55.802;37.404;2023-10-13T10:25:03;98957.03;;;14.02;nan
24620;BME280;12763;55.802;37.404;2023-10-13T10:27:32;98918.84;;;14.09;nan
24620;BME280;12763;55.802;37.404;2023-10-13T10:29:59;98897.50;;;14.53;nan
24620;BME280;12763;55.802;37.404;2023-10-13T10:32:35;98915.16;;;14.42;nan
24620;BME280;12763;55.802;37.404;2023-10-13T10:35:10;98901.84;;;14.65;nan
24620;BME280;12763;55.802;37.404;2023-10-13T10:37:46;98902.75;;;15.93;nan
24620;BME280;12763;55.802;37.404;2023-10-13T10:40:14;98904.81;;;16.65;nan
24620;BME280;12763;55.802;37.404;2023-10-13T10:43:00;98959.69;;;16.69;nan
24620;BME280;12763;55.802;37.404;2023-10-13T10:45:27;98964.31;;;17.21;nan
24620;BME280;12763;55.802;37.404;2023-10-13T10:47:59;98938.47;;;17.60;nan
24620;BME280;12763;55.802;37.404;2023-10-13T10:50:27;98914.97;;;17.06;nan
24620;BME280;12763;55.802;37.404;2023-10-13T10:53:05;98932.72;;;16.85;nan
24620;BME280;12763;55.802;37.404;2023-10-13T10:55:36;98939.06;;;15.18;nan
24620;BME280;12763;55.802;37.404;2023-10-13T10:58:02;98954.00;;;16.02;nan
24620;BME280;12763;55.802;37.404;2023-10-13T11:00:33;98948.56;;;16.69;nan
24620;BME280;12763;55.802;37.404;2023-10-13T11:03:12;98959.06;;;17.39;nan
24620;BME280;12763;55.802;37.404;2023-10-13T11:05:46;98930.00;;;18.51;nan
24620;BME280;12763;55.802;37.404;2023-10-13T11:08:25;98914.34;;;18.40;nan
24620;BME280;12763;55.802;37.404;2023-10-13T11:11:00;98957.88;;;18.66;nan
24620;BME280;12763;55.802;37.404;2023-10-13T11:13:45;98958.19;;;18.55;nan
24620;BME280;12763;55.802;37.404;2023-10-13T11:16:21;98951.47;;;19.20;nan
24620;BME280;12763;55.802;37.404;2023-10-13T11:19:05;99014.03;;;19.39;nan
24620;BME280;12763;55.802;37.404;2023-10-13T11:21:31;98942.53;;;19.96;nan
24620;BME280;12763;55.802;37.404;2023-10-13T11:23:57;98968.38;;;19.87;nan
24620;BME280;12763;55.802;37.404;2023-10-13T11:26:35;98987.84;;;19.69;nan
24620;BME280;12763;55.802;37.404;2023-10-13T11:29:13;98971.34;;;20.59;nan
24620;BME280;12763;55.802;37.404;2023-10-13T11:31:39;98965.72;;;20.35;nan
24620;BME280;12763;55.802;37.404;2023-10-13T11:34:05;98995.47;;;19.92;nan
24620;BME280;12763;55.802;37.404;2023-10-13T11:36:31;98973.63;;;20.28;nan
24620;BME280;12763;55.802;37.404;2023-10-13T11:38:59;98982.53;;;20.35;nan
24620;BME280;12763;55.802;37.404;2023-10-13T11:41:25;98984.16;;;20.88;nan
24620;BME280;12763;55.802;37.404;2023-10-13T11:44:03;98990.88;;;21.72;nan
24620;BME280;12763;55.802;37.404;2023-10-13T11:46:32;98985.31;;;21.30;nan
24620;BME280;12763;55.802;37.404;2023-10-13T11:49:06;99002.31;;;19.32;nan
24620;BME280;12763;55.802;37.404;2023-10-13T11:51:43;98983.53;;;19.38;nan
24620;BME280;12763;55.802;37.404;2023-10-13T11:54:14;98995.13;;;19.65;nan
24620;BME280;12763;55.802;37.404;2023-10-13T11:56:47;98994.13;;;18.92;nan
24620;BME280;12763;55.802;37.404;2023-10-13T11:59:13;98992.84;;;20.06;nan
24620;BME280;12763;55.802;37.404;2023-10-13T12:01:50;99009.47;;;19.53;nan
24620;BME280;12763;55.802;37.404;2023-10-13T12:04:37;98994.19;;;18.71;nan
24620;BME280;12763;55.802;37.404;2023-10-13T12:07:21;98965.94;;;19.32;nan
24620;BME280;12763;55.802;37.404;2023-10-13T12:10:06;99005.03;;;20.25;nan
24620;BME280;12763;55.802;37.404;2023-10-13T12:12:40;98970.84;;;20.99;nan
24620;BME280;12763;55.802;37.404;2023-10-13T12:15:09;98965.25;;;20.52;nan
24620;BME280;12763;55.802;37.404;2023-10-13T12:17:35;99005.53;;;20.32;nan
24620;BME280;12763;55.802;37.404;2023-10-13T12:20:06;98984.66;;;20.95;nan
24620;BME280;12763;55.802;37.404;2023-10-13T12:22:37;98981.72;;;20.82;nan
24620;BME280;12763;55.802;37.404;2023-10-13T12:25:09;98993.28;;;20.75;nan
24620;BME280;12763;55.802;37.404;2023-10-13T12:27:54;99002.63;;;20.08;nan
24620;BME280;12763;55.802;37.404;2023-10-13T12:30:24;98987.03;;;19.63;nan
24620;BME280;12763;55.802;37.404;2023-10-13T12:33:13;98977.00;;;20.54;nan
24620;BME280;12763;55.802;37.404;2023-10-13T12:35:41;99010.56;;;20.82;nan
24620;BME280;12763;55.802;37.404;2023-10-13T12:38:24;99035.56;;;19.87;nan
24620;BME280;12763;55.802;37.404;2023-10-13T12:41:08;99002.38;;;20.38;nan
24620;BME280;12763;55.802;37.404;2023-10-13T12:43:53;99020.25;;;20.95;nan
24620;BME280;12763;55.802;37.404;2023-10-13T12:46:37;99004.81;;;19.77;nan
24620;BME280;12763;55.802;37.404;2023-10-13T12:49:22;99004.69;;;20.60;nan
24620;BME280;12763;55.802;37.404;2023-10-13T12:52:06;99000.91;;;20.70;nan
24620;BME280;12763;55.802;37.404;2023-10-13T12:54:43;99017.16;;;20.73;nan
24620;BME280;12763;55.802;37.404;2023-10-13T12:57:15;98999.91;;;20.84;nan
24620;BME280;12763;55.802;37.404;2023-10-13T12:59:42;99026.81;;;20.85;nan
24620;BME280;12763;55.802;37.404;2023-10-13T13:02:08;99006.78;;;20.44;nan
24620;BME280;12763;55.802;37.404;2023-10-13T13:04:41;99011.81;;;20.71;nan
24620;BME280;12763;55.802;37.404;2023-10-13T13:07:10;99007.53;;;20.26;nan
24620;BME280;12763;55.802;37.404;2023-10-13T13:09:41;99021.53;;;20.55;nan
24620;BME280;12763;55.802;37.404;2023-10-13T13:12:07;99027.56;;;20.43;nan
24620;BME280;12763;55.802;37.404;2023-10-13T13:14:33;99027.13;;;20.55;nan
24620;BME280;12763;55.802;37.404;2023-10-13T13:17:00;99058.63;;;19.69;nan
24620;BME280;12763;55.802;37.404;2023-10-13T13:19:34;99040.00;;;19.88;nan
24620;BME280;12763;55.802;37.404;2023-10-13T13:22:02;99033.06;;;19.81;nan
24620;BME280;12763;55.802;37.404;2023-10-13T13:24:31;99021.19;;;20.62;nan
24620;BME280;12763;55.802;37.404;2023-10-13T13:26:57;99029.56;;;19.65;nan
24620;BME280;12763;55.802;37.404;2023-10-13T13:29:29;99030.66;;;19.64;nan
24620;BME280;12763;55.802;37.404;2023-10-13T13:31:55;99018.41;;;19.99;nan
24620;BME280;12763;55.802;37.404;2023-10-13T13:34:21;99040.63;;;19.80;nan
24620;BME280;12763;55.802;37.404;2023-10-13T13:36:47;99039.28;;;20.12;nan
24620;BME280;12763;55.802;37.404;2023-10-13T13:39:19;99029.22;;;19.72;nan
24620;BME280;12763;55.802;37.404;2023-10-13T13:41:57;99054.41;;;19.72;nan
24620;BME280;12763;55.802;37.404;2023-10-13T13:44:24;99037.69;;;20.01;nan
24620;BME280;12763;55.802;37.404;2023-10-13T13:47:01;99054.75;;;20.04;nan
24620;BME280;12763;55.802;37.404;2023-10-13T13:49:39;99049.25;;;20.28;nan
24620;BME280;12763;55.802;37.404;2023-10-13T13:52:22;99066.06;;;19.35;nan
24620;BME280;12763;55.802;37.404;2023-10-13T13:54:59;99068.31;;;19.38;nan
24620;BME280;12763;55.802;37.404;2023-10-13T13:57:30;99077.88;;;19.22;nan
24620;BME280;12763;55.802;37.404;2023-10-13T13:59:56;99061.91;;;19.27;nan
24620;BME280;12763;55.802;37.404;2023-10-13T14:02:23;99075.31;;;19.35;nan
24620;BME280;12763;55.802;37.404;2023-10-13T14:04:49;99073.28;;;18.42;nan
24620;BME280;12763;55.802;37.404;2023-10-13T14:07:18;99080.53;;;18.38;nan